Aeroporto :
LOGIN :

Iscrizione | Disclaimer

   EN    FR    IT 

 










Sommario :    VFR   VFR Marginale   IFR   IFR Intensivo   IFR Molto Intensivo
Visibilità : 
Base nubi : 
>= 8 km
>= 3000ft
5 / 8 km
1000 / 3000 ft
1500m / 5 km
500 / 1000 ft
800 / 1500m
200 / 500 ft
< 800m
< 200 ft
Simboli :   Temporali  Nebbia  Neve Forte  Precipitazioni Forti  Vento > 20 kt
SIGMETs :   Varie  Temporali  Ghiacco  Turbolenza  Onda orograficha  Ceneri Vulcaniche







- Altitudine del aeroporto : 215 ft
- Codice IATA : ABZ
- Carte del aeroporto


EGPD - Aberdeen / Dyce

ULTIMO METAR :
  • 271150Z AUTO 11006KT 080V160 9999 SCT024 18/13 Q1032 NOSIG

METARs OBSOLETI :
  • 271120Z AUTO VRB03KT 9999 NCD 19/13 Q1033 NOSIG
  • 271050Z AUTO 33004KT 220V020 9999 NCD 18/13 Q1033 NOSIG
  • 271020Z AUTO VRB05KT 9999 FEW021 18/13 Q1033 NOSIG
  • 270950Z AUTO 03007KT 340V050 9999 NCD 18/12 Q1032 NOSIG
  • 270920Z 36007KT 9999 FEW025 17/12 Q1032 NOSIG

TAF TAF EGPD
Valido dal 27 a 12 ore il 28 a 12 ore UTC


271056Z 2712/2812 32005KT 9999 FEW045
BECMG 2712/2715 12010KT
PROB30
TEMPO 2713/2721 BKN014
BECMG 2721/2724 18006KT BKN008
TEMPO 2721/2806 7000 BKN006
PROB40
TEMPO 2800/2806 BKN004
BECMG 2806/2809 SCT008
TEMPO 2809/2812 BKN012
Nessun NOTAM noto per questo aeroporto.



MetMap, La meteo Aeronautica in un colpo d'occhio ! - Copyright ORBIFLY Dicembre 2007 - Disclaimer

ORBIFLY MET'MAP TEAM :

Programmazione e sviluppo : Alexandra Zaïnal
Concezione e sviluppo : Baudouin d'Aumeries
Co-Programmazione e sviluppo : Marc-Olivier Méhu
Supporto tecnico e logistico : Manuel Goepfert
Aiuto per la traduzione : Arnaldo La Scala

Contatto : metmap@orbifly.com




FONTI E CREDITI :

   NOAA